createdAt,value
2018-05-10T00:00:38.602Z,0
2018-05-10T00:01:38.069Z,0
2018-05-10T00:02:38.837Z,0
2018-05-10T00:03:38.579Z,0
2018-05-10T00:04:38.560Z,0
2018-05-10T00:05:38.560Z,0
2018-05-10T00:06:38.549Z,0
2018-05-10T00:07:38.540Z,0
2018-05-10T00:08:38.538Z,0
2018-05-10T00:09:38.527Z,0
2018-05-10T00:10:38.511Z,0
2018-05-10T00:11:38.768Z,0
2018-05-10T00:12:38.495Z,0
2018-05-10T00:13:38.240Z,0
2018-05-10T00:14:38.744Z,0
2018-05-10T00:15:37.957Z,0
2018-05-10T00:16:38.468Z,0
2018-05-10T00:17:38.712Z,0
2018-05-10T00:18:38.702Z,0
2018-05-10T00:19:38.182Z,0
2018-05-10T00:20:38.429Z,0
2018-05-10T00:21:38.696Z,0
2018-05-10T00:22:38.411Z,0
2018-05-10T00:23:38.149Z,0
2018-05-10T00:24:38.399Z,0
2018-05-10T00:25:38.133Z,0
2018-05-10T00:26:38.121Z,0
2018-05-10T00:27:38.120Z,0
2018-05-10T00:28:38.372Z,0
2018-05-10T00:29:38.187Z,0
2018-05-10T00:30:38.345Z,0
2018-05-10T00:31:38.082Z,0
2018-05-10T00:32:38.587Z,0
2018-05-10T00:33:38.585Z,0
2018-05-10T00:34:38.057Z,0
2018-05-10T00:35:38.312Z,0
2018-05-10T00:36:38.041Z,0
2018-05-10T00:37:38.553Z,0
2018-05-10T00:38:37.767Z,0
2018-05-10T00:39:38.274Z,0
2018-05-10T00:40:38.536Z,0
2018-05-10T00:41:38.264Z,0
2018-05-10T00:42:38.250Z,0
2018-05-10T00:43:38.336Z,0
2018-05-10T00:44:37.722Z,0
2018-05-10T00:45:37.969Z,0
2018-05-10T00:46:37.965Z,0
2018-05-10T00:47:38.473Z,0
2018-05-10T00:48:38.458Z,0
2018-05-10T00:49:37.936Z,0
2018-05-10T00:50:38.444Z,0
2018-05-10T00:51:37.921Z,0
2018-05-10T00:52:38.429Z,0
2018-05-10T00:53:38.421Z,0
2018-05-10T00:54:37.631Z,0
2018-05-10T00:55:38.406Z,0
2018-05-10T00:56:38.395Z,0
2018-05-10T00:57:38.141Z,0
2018-05-10T00:58:38.377Z,0
2018-05-10T00:59:38.111Z,0
2018-05-10T01:00:37.328Z,0
2018-05-10T01:01:38.103Z,0
2018-05-10T01:02:38.086Z,0
2018-05-10T01:03:37.817Z,0
2018-05-10T01:04:38.318Z,0
2018-05-10T01:05:38.322Z,0
2018-05-10T01:06:38.057Z,0
2018-05-10T01:07:38.304Z,0
2018-05-10T01:08:38.291Z,0
2018-05-10T01:09:38.023Z,0
2018-05-10T01:10:38.328Z,0
2018-05-10T01:11:38.275Z,0
2018-05-10T01:12:37.484Z,0
2018-05-10T01:13:37.993Z,0
2018-05-10T01:14:38.240Z,0
2018-05-10T01:15:38.059Z,0
2018-05-10T01:16:37.714Z,0
2018-05-10T01:17:38.225Z,0
2018-05-10T01:18:38.211Z,0
2018-05-10T01:19:38.194Z,0
2018-05-10T01:20:37.937Z,0
2018-05-10T01:21:37.669Z,0
2018-05-10T01:22:37.923Z,0
2018-05-10T01:23:38.162Z,0
2018-05-10T01:24:37.896Z,0
2018-05-10T01:25:37.893Z,0
2018-05-10T01:26:37.627Z,0
2018-05-10T01:27:37.626Z,0
2018-05-10T01:28:38.124Z,0
2018-05-10T01:29:38.112Z,0
2018-05-10T01:30:37.851Z,0
2018-05-10T01:31:38.105Z,0
2018-05-10T01:32:37.829Z,0
2018-05-10T01:33:37.825Z,0
2018-05-10T01:34:37.810Z,0
2018-05-10T01:35:37.030Z,0
2018-05-10T01:36:38.053Z,0
2018-05-10T01:37:38.043Z,0
2018-05-10T01:38:37.777Z,0
2018-05-10T01:39:37.782Z,0
2018-05-10T01:40:37.761Z,0
2018-05-10T01:41:37.769Z,0
2018-05-10T01:42:37.228Z,0
2018-05-10T01:43:37.737Z,0
2018-05-10T01:44:38.072Z,0
2018-05-10T01:45:37.982Z,0
2018-05-10T01:46:37.714Z,0
2018-05-10T01:47:37.704Z,0
2018-05-10T01:48:37.717Z,0
2018-05-10T01:49:37.951Z,0
2018-05-10T01:50:37.952Z,0
2018-05-10T01:51:37.669Z,0
2018-05-10T01:52:37.664Z,0
2018-05-10T01:53:37.908Z,0
2018-05-10T01:54:37.902Z,0
2018-05-10T01:55:37.379Z,0
2018-05-10T01:56:37.108Z,0
2018-05-10T01:57:37.353Z,0
2018-05-10T01:58:37.867Z,0
2018-05-10T01:59:37.678Z,0
2018-05-10T02:00:37.592Z,0
2018-05-10T02:01:37.064Z,0
2018-05-10T02:02:37.832Z,0
2018-05-10T02:03:37.880Z,0
2018-05-10T02:04:37.551Z,0
2018-05-10T02:05:37.816Z,0
2018-05-10T02:06:37.607Z,0
2018-05-10T02:07:37.535Z,0
2018-05-10T02:08:37.265Z,0
2018-05-10T02:09:37.510Z,0
2018-05-10T02:10:37.501Z,0
2018-05-10T02:11:37.743Z,0
2018-05-10T02:12:37.227Z,0
2018-05-10T02:13:37.479Z,0
2018-05-10T02:14:37.739Z,0
2018-05-10T02:15:37.457Z,0
2018-05-10T02:16:37.699Z,0
2018-05-10T02:17:37.699Z,0
2018-05-10T02:18:37.683Z,0
2018-05-10T02:19:37.425Z,0
2018-05-10T02:20:37.413Z,0
2018-05-10T02:21:37.401Z,0
2018-05-10T02:22:37.656Z,0
2018-05-10T02:23:36.869Z,0
2018-05-10T02:24:37.373Z,0
2018-05-10T02:25:37.375Z,0
2018-05-10T02:26:37.103Z,0
2018-05-10T02:27:37.101Z,0
2018-05-10T02:28:37.342Z,0
2018-05-10T02:29:37.375Z,0
2018-05-10T02:30:37.596Z,0
2018-05-10T02:31:37.312Z,0
2018-05-10T02:32:37.310Z,0
2018-05-10T02:33:37.295Z,0
2018-05-10T02:34:37.033Z,0
2018-05-10T02:35:37.565Z,0
2018-05-10T02:36:37.782Z,0
2018-05-10T02:37:37.001Z,0
2018-05-10T02:38:37.264Z,0
2018-05-10T02:39:37.511Z,0
2018-05-10T02:40:37.490Z,0
2018-05-10T02:41:36.981Z,0
2018-05-10T02:42:37.472Z,0
2018-05-10T02:43:36.952Z,0
2018-05-10T02:44:37.451Z,0
2018-05-10T02:45:36.678Z,0
2018-05-10T02:46:37.432Z,0
2018-05-10T02:47:37.430Z,0
2018-05-10T02:48:37.157Z,0
2018-05-10T02:49:37.155Z,0
2018-05-10T02:50:37.140Z,0
2018-05-10T02:51:37.402Z,0
2018-05-10T02:52:37.121Z,0
2018-05-10T02:53:37.122Z,0
2018-05-10T02:54:36.594Z,0
2018-05-10T02:55:36.837Z,0
2018-05-10T02:56:37.093Z,0
2018-05-10T02:57:37.340Z,0
2018-05-10T02:58:37.328Z,0
2018-05-10T02:59:37.064Z,0
2018-05-10T03:00:37.049Z,0
2018-05-10T03:01:37.049Z,0
2018-05-10T03:02:36.782Z,0
2018-05-10T03:03:36.764Z,0
2018-05-10T03:04:37.290Z,0
2018-05-10T03:05:37.266Z,0
2018-05-10T03:06:37.002Z,0
2018-05-10T03:07:36.995Z,0
2018-05-10T03:08:37.231Z,0
2018-05-10T03:09:37.231Z,0
2018-05-10T03:10:36.964Z,0
2018-05-10T03:11:36.961Z,0
2018-05-10T03:12:36.963Z,0
2018-05-10T03:13:37.201Z,0
2018-05-10T03:14:37.195Z,0
2018-05-10T03:15:36.660Z,0
2018-05-10T03:16:36.644Z,0
2018-05-10T03:17:36.900Z,0
2018-05-10T03:18:36.882Z,0
2018-05-10T03:19:36.885Z,0
2018-05-10T03:20:36.648Z,0
2018-05-10T03:21:37.116Z,0
2018-05-10T03:22:36.854Z,0
2018-05-10T03:23:36.833Z,0
2018-05-10T03:24:36.826Z,0
2018-05-10T03:25:36.302Z,0
2018-05-10T03:26:36.558Z,0
2018-05-10T03:27:36.543Z,5
2018-05-10T03:28:36.534Z,5
2018-05-10T03:29:36.777Z,5
2018-05-10T03:30:36.773Z,5
2018-05-10T03:31:37.033Z,5
2018-05-10T03:32:37.017Z,5
2018-05-10T03:33:36.485Z,5
2018-05-10T03:34:36.743Z,5
2018-05-10T03:35:36.726Z,10
2018-05-10T03:36:36.465Z,10
2018-05-10T03:37:36.720Z,10
2018-05-10T03:38:36.177Z,10
2018-05-10T03:39:36.686Z,10
2018-05-10T03:40:37.164Z,10
2018-05-10T03:41:36.676Z,15
2018-05-10T03:42:36.659Z,15
2018-05-10T03:43:36.399Z,15
2018-05-10T03:44:36.381Z,15
2018-05-10T03:45:36.378Z,20
2018-05-10T03:46:36.810Z,20
2018-05-10T03:47:36.617Z,20
2018-05-10T03:48:36.342Z,20
2018-05-10T03:49:36.596Z,20
2018-05-10T03:50:36.587Z,25
2018-05-10T03:51:36.062Z,25
2018-05-10T03:52:36.313Z,25
2018-05-10T03:53:36.559Z,25
2018-05-10T03:54:36.542Z,30
2018-05-10T03:55:36.277Z,30
2018-05-10T03:56:36.528Z,30
2018-05-10T03:57:36.260Z,30
2018-05-10T03:58:36.505Z,30
2018-05-10T03:59:36.757Z,30
2018-05-10T04:00:36.493Z,35
2018-05-10T04:01:36.482Z,35
2018-05-10T04:02:36.474Z,35
2018-05-10T04:03:36.462Z,35
2018-05-10T04:04:36.717Z,35
2018-05-10T04:05:36.451Z,35
2018-05-10T04:06:36.704Z,40
2018-05-10T04:07:36.684Z,40
2018-05-10T04:08:36.688Z,40
2018-05-10T04:09:36.146Z,40
2018-05-10T04:10:36.140Z,45
2018-05-10T04:11:36.646Z,45
2018-05-10T04:12:36.125Z,50
2018-05-10T04:13:36.376Z,50
2018-05-10T04:14:36.368Z,50
2018-05-10T04:15:36.897Z,50
2018-05-10T04:16:36.348Z,55
2018-05-10T04:17:36.079Z,55
2018-05-10T04:18:36.577Z,55
2018-05-10T04:19:36.069Z,55
2018-05-10T04:20:36.565Z,55
2018-05-10T04:21:36.316Z,55
2018-05-10T04:22:35.779Z,55
2018-05-10T04:23:36.028Z,55
2018-05-10T04:24:36.266Z,50
2018-05-10T04:25:36.257Z,50
2018-05-10T04:26:36.510Z,50
2018-05-10T04:27:36.251Z,55
2018-05-10T04:28:36.586Z,55
2018-05-10T04:29:36.225Z,55
2018-05-10T04:30:36.474Z,55
2018-05-10T04:31:36.226Z,55
2018-05-10T04:32:36.212Z,60
2018-05-10T04:33:36.448Z,65
2018-05-10T04:34:36.182Z,65
2018-05-10T04:35:36.181Z,70
2018-05-10T04:36:35.920Z,70
2018-05-10T04:37:36.158Z,75
2018-05-10T04:38:36.408Z,75
2018-05-10T04:39:35.885Z,80
2018-05-10T04:40:36.385Z,85
2018-05-10T04:41:35.865Z,85
2018-05-10T04:42:36.371Z,85
2018-05-10T04:43:36.364Z,80
2018-05-10T04:44:36.099Z,80
2018-05-10T04:45:36.358Z,80
2018-05-10T04:46:36.083Z,80
2018-05-10T04:47:36.333Z,80
2018-05-10T04:48:36.065Z,80
2018-05-10T04:49:35.800Z,80
2018-05-10T04:50:36.150Z,85
2018-05-10T04:51:36.301Z,90
2018-05-10T04:52:36.042Z,90
2018-05-10T04:53:36.292Z,95
2018-05-10T04:54:36.277Z,100
2018-05-10T04:55:36.015Z,100
2018-05-10T04:56:36.012Z,105
2018-05-10T04:57:36.001Z,105
2018-05-10T04:58:35.732Z,105
2018-05-10T04:59:36.239Z,110
2018-05-10T05:00:36.236Z,110
2018-05-10T05:01:35.717Z,110
2018-05-10T05:02:36.300Z,105
2018-05-10T05:03:36.598Z,105
2018-05-10T05:04:35.952Z,105
2018-05-10T05:05:36.196Z,105
2018-05-10T05:06:36.210Z,105
2018-05-10T05:07:35.922Z,100
2018-05-10T05:08:35.919Z,100
2018-05-10T05:09:35.392Z,100
2018-05-10T05:10:35.900Z,100
2018-05-10T05:11:35.895Z,100
2018-05-10T05:12:36.154Z,105
2018-05-10T05:13:35.627Z,105
2018-05-10T05:14:35.620Z,105
2018-05-10T05:15:36.130Z,105
2018-05-10T05:16:36.120Z,105
2018-05-10T05:17:36.140Z,105
2018-05-10T05:18:36.110Z,105
2018-05-10T05:19:35.845Z,105
2018-05-10T05:20:35.838Z,110
2018-05-10T05:21:36.200Z,110
2018-05-10T05:22:35.560Z,115
2018-05-10T05:23:36.079Z,115
2018-05-10T05:24:35.549Z,120
2018-05-10T05:25:35.800Z,120
2018-05-10T05:26:36.052Z,115
2018-05-10T05:27:35.534Z,120
2018-05-10T05:28:35.624Z,115
2018-05-10T05:29:35.777Z,110
2018-05-10T05:30:35.781Z,110
2018-05-10T05:31:35.769Z,115
2018-05-10T05:32:36.021Z,110
2018-05-10T05:33:35.497Z,115
2018-05-10T05:34:35.775Z,115
2018-05-10T05:35:35.716Z,120
2018-05-10T05:36:35.956Z,125
2018-05-10T05:37:35.987Z,130
2018-05-10T05:38:35.987Z,135
2018-05-10T05:39:35.713Z,140
2018-05-10T05:40:35.645Z,145
2018-05-10T05:41:36.081Z,150
2018-05-10T05:42:35.186Z,160
2018-05-10T05:43:35.903Z,165
2018-05-10T05:44:35.723Z,165
2018-05-10T05:45:35.416Z,170
2018-05-10T05:46:35.673Z,170
2018-05-10T05:47:35.940Z,165
2018-05-10T05:48:35.144Z,160
2018-05-10T05:49:35.391Z,155
2018-05-10T05:50:35.643Z,150
2018-05-10T05:51:35.638Z,145
2018-05-10T05:52:35.893Z,140
2018-05-10T05:53:35.385Z,140
2018-05-10T05:54:34.851Z,135
2018-05-10T05:55:35.358Z,135
2018-05-10T05:56:35.622Z,130
2018-05-10T05:57:35.629Z,130
2018-05-10T05:58:35.690Z,125
2018-05-10T05:59:35.596Z,130
2018-05-10T06:00:35.850Z,135
2018-05-10T06:01:35.590Z,130
2018-05-10T06:02:35.589Z,130
2018-05-10T06:03:35.332Z,125
2018-05-10T06:04:35.314Z,125
2018-05-10T06:05:35.570Z,130
2018-05-10T06:06:35.822Z,140
2018-05-10T06:07:35.555Z,145
2018-05-10T06:08:35.419Z,145
2018-05-10T06:09:35.286Z,145
2018-05-10T06:10:35.537Z,150
2018-05-10T06:11:35.540Z,155
2018-05-10T06:12:35.537Z,160
2018-05-10T06:13:35.520Z,165
2018-05-10T06:14:35.521Z,170
2018-05-10T06:15:36.143Z,170
2018-05-10T06:16:35.767Z,165
2018-05-10T06:17:35.765Z,170
2018-05-10T06:18:34.979Z,175
2018-05-10T06:19:35.235Z,185
2018-05-10T06:20:35.233Z,190
2018-05-10T06:21:35.227Z,185
2018-05-10T06:22:35.490Z,195
2018-05-10T06:23:35.475Z,195
2018-05-10T06:24:35.479Z,190
2018-05-10T06:25:35.464Z,190
2018-05-10T06:26:35.456Z,190
2018-05-10T06:27:35.458Z,185
2018-05-10T06:28:35.455Z,185
2018-05-10T06:29:35.448Z,190
2018-05-10T06:30:35.449Z,200
2018-05-10T06:31:35.441Z,205
2018-05-10T06:32:35.437Z,210
2018-05-10T06:33:35.682Z,230
2018-05-10T06:34:35.699Z,255
2018-05-10T06:35:35.431Z,295
2018-05-10T06:36:35.715Z,330
2018-05-10T06:37:35.162Z,305
2018-05-10T06:38:35.670Z,285
2018-05-10T06:39:35.678Z,310
2018-05-10T06:40:35.673Z,300
2018-05-10T06:41:35.975Z,285
2018-05-10T06:42:35.393Z,250
2018-05-10T06:43:35.656Z,275
2018-05-10T06:44:35.660Z,270
2018-05-10T06:45:35.387Z,320
2018-05-10T06:46:35.128Z,280
2018-05-10T06:47:34.870Z,320
2018-05-10T06:48:35.123Z,300
2018-05-10T06:49:35.385Z,340
2018-05-10T06:50:35.369Z,285
2018-05-10T06:51:35.635Z,285
2018-05-10T06:52:35.364Z,335
2018-05-10T06:53:35.366Z,385
2018-05-10T06:54:35.734Z,355
2018-05-10T06:55:35.618Z,390
2018-05-10T06:56:35.645Z,425
2018-05-10T06:57:35.368Z,410
2018-05-10T06:58:35.106Z,415
2018-05-10T06:59:35.096Z,385
2018-05-10T07:00:34.847Z,385
2018-05-10T07:01:35.371Z,400
2018-05-10T07:02:35.358Z,410
2018-05-10T07:03:35.499Z,395
2018-05-10T07:04:35.095Z,410
2018-05-10T07:05:35.611Z,420
2018-05-10T07:06:35.618Z,480
2018-05-10T07:07:35.611Z,510
2018-05-10T07:08:35.367Z,520
2018-05-10T07:09:36.276Z,510
2018-05-10T07:10:35.619Z,505
2018-05-10T07:11:35.354Z,490
2018-05-10T07:12:35.362Z,480
2018-05-10T07:13:34.850Z,485
2018-05-10T07:14:34.847Z,475
2018-05-10T07:15:35.368Z,475
2018-05-10T07:16:35.640Z,475
2018-05-10T07:17:35.113Z,450
2018-05-10T07:18:35.634Z,460
2018-05-10T07:19:35.377Z,465
2018-05-10T07:20:35.378Z,460
2018-05-10T07:21:35.382Z,445
2018-05-10T07:22:35.387Z,440
2018-05-10T07:23:35.395Z,430
2018-05-10T07:24:35.656Z,425
2018-05-10T07:25:36.009Z,410
2018-05-10T07:26:35.404Z,400
2018-05-10T07:27:35.154Z,375
2018-05-10T07:28:35.409Z,355
2018-05-10T07:29:35.156Z,335
2018-05-10T07:30:35.678Z,300
2018-05-10T07:31:35.435Z,285
2018-05-10T07:32:35.436Z,270
2018-05-10T07:33:35.442Z,260
2018-05-10T07:34:35.720Z,265
2018-05-10T07:35:34.931Z,240
2018-05-10T07:36:35.461Z,250
2018-05-10T07:37:35.463Z,230
2018-05-10T07:38:35.223Z,260
2018-05-10T07:39:35.213Z,270
2018-05-10T07:40:35.502Z,275
2018-05-10T07:41:35.319Z,280
2018-05-10T07:42:35.227Z,280
2018-05-10T07:43:35.758Z,275
2018-05-10T07:44:35.242Z,270
2018-05-10T07:45:35.767Z,260
2018-05-10T07:46:35.261Z,255
2018-05-10T07:47:35.141Z,245
2018-05-10T07:48:35.273Z,235
2018-05-10T07:49:35.270Z,230
2018-05-10T07:50:35.792Z,220
2018-05-10T07:51:35.535Z,215
2018-05-10T07:52:35.545Z,210
2018-05-10T07:53:35.552Z,210
2018-05-10T07:54:35.689Z,210
2018-05-10T07:55:35.564Z,210
2018-05-10T07:56:35.563Z,210
2018-05-10T07:57:35.580Z,210
2018-05-10T07:58:35.642Z,210
2018-05-10T07:59:35.855Z,205
2018-05-10T08:00:35.340Z,205
2018-05-10T08:01:35.328Z,200
2018-05-10T08:02:35.329Z,210
2018-05-10T08:03:35.600Z,215
2018-05-10T08:04:35.603Z,220
2018-05-10T08:05:35.601Z,220
2018-05-10T08:06:35.355Z,220
2018-05-10T08:07:35.624Z,220
2018-05-10T08:08:35.652Z,215
2018-05-10T08:09:35.625Z,210
2018-05-10T08:10:35.369Z,210
2018-05-10T08:11:35.116Z,205
2018-05-10T08:12:35.682Z,205
2018-05-10T08:13:35.376Z,205
2018-05-10T08:14:35.387Z,205
2018-05-10T08:15:35.392Z,200
2018-05-10T08:16:35.396Z,200
2018-05-10T08:17:35.388Z,200
2018-05-10T08:18:35.910Z,200
2018-05-10T08:19:35.661Z,205
2018-05-10T08:20:35.666Z,210
2018-05-10T08:21:35.406Z,215
2018-05-10T08:22:35.926Z,215
2018-05-10T08:23:35.673Z,215
2018-05-10T08:24:35.932Z,225
2018-05-10T08:25:35.681Z,235
2018-05-10T08:26:35.940Z,270
2018-05-10T08:27:35.429Z,315
2018-05-10T08:28:35.678Z,350
2018-05-10T08:29:35.951Z,385
2018-05-10T08:30:35.426Z,405
2018-05-10T08:31:35.947Z,410
2018-05-10T08:32:35.962Z,445
2018-05-10T08:33:35.696Z,450
2018-05-10T08:34:35.701Z,445
2018-05-10T08:35:35.697Z,445
2018-05-10T08:36:35.669Z,450
2018-05-10T08:37:35.750Z,440
2018-05-10T08:38:35.709Z,430
2018-05-10T08:39:35.710Z,415
2018-05-10T08:40:35.712Z,410
2018-05-10T08:41:35.712Z,425
2018-05-10T08:42:35.458Z,430
2018-05-10T08:43:35.717Z,435
2018-05-10T08:44:35.467Z,435
2018-05-10T08:45:35.475Z,430
2018-05-10T08:46:35.480Z,400
2018-05-10T08:47:35.218Z,370
2018-05-10T08:48:35.989Z,360
2018-05-10T08:49:35.740Z,350
2018-05-10T08:50:35.753Z,325
2018-05-10T08:51:35.631Z,315
2018-05-10T08:52:36.010Z,315
2018-05-10T08:53:35.745Z,320
2018-05-10T08:54:35.752Z,325
2018-05-10T08:55:35.763Z,325
2018-05-10T08:56:35.763Z,330
2018-05-10T08:57:36.020Z,360
2018-05-10T08:58:36.032Z,400
2018-05-10T08:59:36.028Z,430
2018-05-10T09:00:35.516Z,425
2018-05-10T09:01:36.037Z,435
2018-05-10T09:02:35.779Z,445
2018-05-10T09:03:35.784Z,455
2018-05-10T09:04:35.785Z,450
2018-05-10T09:05:35.787Z,405
2018-05-10T09:06:36.054Z,365
2018-05-10T09:07:35.570Z,360
2018-05-10T09:08:36.095Z,350
2018-05-10T09:09:35.794Z,350
2018-05-10T09:10:35.809Z,335
2018-05-10T09:11:35.291Z,345
2018-05-10T09:12:35.815Z,370
2018-05-10T09:13:35.818Z,385
2018-05-10T09:14:35.561Z,405
2018-05-10T09:15:35.560Z,400
2018-05-10T09:16:35.825Z,375
2018-05-10T09:17:35.818Z,350
2018-05-10T09:18:36.100Z,365
2018-05-10T09:19:36.086Z,370
2018-05-10T09:20:35.577Z,420
2018-05-10T09:21:35.322Z,450
2018-05-10T09:22:35.838Z,480
2018-05-10T09:23:35.582Z,460
2018-05-10T09:24:35.646Z,435
2018-05-10T09:25:35.856Z,390
2018-05-10T09:26:36.110Z,350
2018-05-10T09:27:35.862Z,320
2018-05-10T09:28:36.218Z,335
2018-05-10T09:29:35.607Z,340
2018-05-10T09:30:35.836Z,370
2018-05-10T09:31:35.678Z,420
2018-05-10T09:32:36.217Z,420
2018-05-10T09:33:35.682Z,405
2018-05-10T09:34:35.884Z,420
2018-05-10T09:35:35.886Z,410
2018-05-10T09:36:35.635Z,405
2018-05-10T09:37:35.889Z,375
2018-05-10T09:38:35.897Z,365
2018-05-10T09:39:36.325Z,375
2018-05-10T09:40:35.639Z,375
2018-05-10T09:41:35.900Z,400
2018-05-10T09:42:35.645Z,435
2018-05-10T09:43:35.652Z,450
2018-05-10T09:44:35.650Z,455
2018-05-10T09:45:35.931Z,455
2018-05-10T09:46:36.004Z,470
2018-05-10T09:47:35.928Z,480
2018-05-10T09:48:36.172Z,475
2018-05-10T09:49:35.923Z,455
2018-05-10T09:50:35.931Z,425
2018-05-10T09:51:35.728Z,420
2018-05-10T09:52:35.988Z,410
2018-05-10T09:53:35.686Z,420
2018-05-10T09:54:35.694Z,400
2018-05-10T09:55:35.443Z,365
2018-05-10T09:56:35.959Z,355
2018-05-10T09:57:36.115Z,345
2018-05-10T09:58:35.706Z,310
2018-05-10T09:59:36.184Z,295
2018-05-10T10:00:35.970Z,280
2018-05-10T10:01:35.716Z,275
2018-05-10T10:02:36.234Z,275
2018-05-10T10:03:35.979Z,290
2018-05-10T10:04:35.982Z,310
2018-05-10T10:05:35.997Z,345
2018-05-10T10:06:35.742Z,390
2018-05-10T10:07:36.256Z,405
2018-05-10T10:08:35.998Z,405
2018-05-10T10:09:35.744Z,395
2018-05-10T10:10:36.002Z,390
2018-05-10T10:11:36.561Z,355
2018-05-10T10:12:36.018Z,365
2018-05-10T10:13:35.750Z,385
2018-05-10T10:14:36.025Z,400
2018-05-10T10:15:35.825Z,415
2018-05-10T10:16:35.766Z,405
2018-05-10T10:17:36.524Z,410
2018-05-10T10:18:36.046Z,420
2018-05-10T10:19:36.046Z,405
2018-05-10T10:20:36.296Z,390
2018-05-10T10:21:36.300Z,375
2018-05-10T10:22:35.787Z,395
2018-05-10T10:23:36.309Z,395
2018-05-10T10:24:35.795Z,375
2018-05-10T10:25:36.305Z,350
2018-05-10T10:26:36.050Z,330
2018-05-10T10:27:36.305Z,295
2018-05-10T10:28:36.333Z,295
2018-05-10T10:29:35.801Z,315
2018-05-10T10:30:35.549Z,365
2018-05-10T10:31:36.070Z,395
2018-05-10T10:32:36.299Z,400
2018-05-10T10:33:35.813Z,390
2018-05-10T10:34:36.330Z,375
2018-05-10T10:35:36.075Z,375
2018-05-10T10:36:36.093Z,380
2018-05-10T10:37:36.089Z,355
2018-05-10T10:38:36.101Z,360
2018-05-10T10:39:36.100Z,380
2018-05-10T10:40:36.106Z,385
2018-05-10T10:41:36.373Z,365
2018-05-10T10:42:36.136Z,355
2018-05-10T10:43:35.852Z,375
2018-05-10T10:44:36.114Z,400
2018-05-10T10:45:36.431Z,405
2018-05-10T10:46:36.376Z,380
2018-05-10T10:47:36.390Z,375
2018-05-10T10:48:36.392Z,360
2018-05-10T10:49:35.354Z,355
2018-05-10T10:50:36.140Z,330
2018-05-10T10:51:36.149Z,310
2018-05-10T10:52:36.149Z,290
2018-05-10T10:53:36.135Z,285
2018-05-10T10:54:36.405Z,290
2018-05-10T10:55:36.150Z,270
2018-05-10T10:56:35.895Z,285
2018-05-10T10:57:36.156Z,295
2018-05-10T10:58:36.157Z,300
2018-05-10T10:59:36.168Z,295
2018-05-10T11:00:36.165Z,275
2018-05-10T11:01:36.436Z,265
2018-05-10T11:02:36.434Z,260
2018-05-10T11:03:35.919Z,250
2018-05-10T11:04:36.181Z,245
2018-05-10T11:05:35.932Z,270
2018-05-10T11:06:36.437Z,255
2018-05-10T11:07:36.189Z,240
2018-05-10T11:08:36.451Z,220
2018-05-10T11:09:36.195Z,205
2018-05-10T11:10:36.288Z,205
2018-05-10T11:11:36.278Z,215
2018-05-10T11:12:36.206Z,240
2018-05-10T11:13:36.216Z,275
2018-05-10T11:14:36.004Z,300
2018-05-10T11:15:36.536Z,300
2018-05-10T11:16:36.214Z,290
2018-05-10T11:17:36.221Z,295
2018-05-10T11:18:35.958Z,295
2018-05-10T11:19:36.313Z,315
2018-05-10T11:20:35.979Z,335
2018-05-10T11:21:36.232Z,335
2018-05-10T11:22:36.243Z,315
2018-05-10T11:23:36.229Z,300
2018-05-10T11:24:36.501Z,290
2018-05-10T11:25:36.495Z,285
2018-05-10T11:26:36.499Z,285
2018-05-10T11:27:36.418Z,295
2018-05-10T11:28:35.998Z,310
2018-05-10T11:29:35.990Z,325
2018-05-10T11:30:35.988Z,340
2018-05-10T11:31:35.736Z,350
2018-05-10T11:32:35.997Z,355
2018-05-10T11:33:36.260Z,355
2018-05-10T11:34:35.998Z,345
2018-05-10T11:35:36.519Z,325
2018-05-10T11:36:36.342Z,310
2018-05-10T11:37:36.270Z,290
2018-05-10T11:38:36.524Z,280
2018-05-10T11:39:36.262Z,260
2018-05-10T11:40:36.011Z,245
2018-05-10T11:41:36.272Z,225
2018-05-10T11:42:36.528Z,205
2018-05-10T11:43:36.533Z,190
2018-05-10T11:44:36.612Z,180
2018-05-10T11:45:36.284Z,170
2018-05-10T11:46:36.284Z,165
2018-05-10T11:47:36.552Z,160
2018-05-10T11:48:36.130Z,155
2018-05-10T11:49:36.284Z,155
2018-05-10T11:50:36.288Z,150
2018-05-10T11:51:36.035Z,150
2018-05-10T11:52:36.293Z,155
2018-05-10T11:53:36.034Z,155
2018-05-10T11:54:36.303Z,155
2018-05-10T11:55:36.297Z,165
2018-05-10T11:56:36.038Z,175
2018-05-10T11:57:36.338Z,190
2018-05-10T11:58:36.044Z,205
2018-05-10T11:59:36.305Z,220
2018-05-10T12:00:36.393Z,230
2018-05-10T12:01:36.303Z,235
2018-05-10T12:02:36.815Z,240
2018-05-10T12:03:36.301Z,235
2018-05-10T12:04:36.978Z,225
2018-05-10T12:05:36.557Z,220
2018-05-10T12:06:35.862Z,205
2018-05-10T12:07:36.590Z,185
2018-05-10T12:08:36.722Z,175
2018-05-10T12:09:36.166Z,160
2018-05-10T12:10:36.468Z,155
2018-05-10T12:11:36.716Z,145
2018-05-10T12:12:36.470Z,140
2018-05-10T12:13:36.190Z,140
2018-05-10T12:14:36.465Z,135
2018-05-10T12:15:36.467Z,125
2018-05-10T12:16:36.472Z,120
2018-05-10T12:17:36.732Z,110
2018-05-10T12:18:36.188Z,110
2018-05-10T12:19:36.464Z,95
2018-05-10T12:20:35.945Z,95
2018-05-10T12:21:36.459Z,90
2018-05-10T12:22:36.176Z,90
2018-05-10T12:23:36.449Z,85
2018-05-10T12:24:36.443Z,85
2018-05-10T12:25:36.643Z,80
2018-05-10T12:26:36.733Z,80
2018-05-10T12:27:36.728Z,80
2018-05-10T12:28:36.187Z,85
2018-05-10T12:29:36.449Z,85
2018-05-10T12:30:36.974Z,85
2018-05-10T12:31:36.466Z,90
2018-05-10T12:32:36.446Z,90
2018-05-10T12:33:36.740Z,90
2018-05-10T12:34:36.196Z,90
2018-05-10T12:35:36.459Z,90
2018-05-10T12:36:36.572Z,95
2018-05-10T12:37:36.271Z,95
2018-05-10T12:38:36.476Z,100
2018-05-10T12:39:36.453Z,100
2018-05-10T12:40:36.431Z,100
2018-05-10T12:41:36.002Z,100
2018-05-10T12:42:36.716Z,100
2018-05-10T12:43:36.423Z,105
2018-05-10T12:44:36.175Z,110
2018-05-10T12:45:36.445Z,120
2018-05-10T12:46:36.435Z,130
2018-05-10T12:47:36.455Z,135
2018-05-10T12:48:36.762Z,145
2018-05-10T12:49:36.750Z,150
2018-05-10T12:50:36.427Z,155
2018-05-10T12:51:36.417Z,160
2018-05-10T12:52:36.437Z,160
2018-05-10T12:53:36.503Z,175
2018-05-10T12:54:37.036Z,185
2018-05-10T12:55:36.234Z,195
2018-05-10T12:56:37.360Z,205
2018-05-10T12:57:36.349Z,215
2018-05-10T12:58:36.863Z,225
2018-05-10T12:59:36.554Z,240
2018-05-10T13:00:36.893Z,255
2018-05-10T13:01:36.365Z,265
2018-05-10T13:02:36.869Z,270
2018-05-10T13:03:36.862Z,265
2018-05-10T13:04:36.591Z,250
2018-05-10T13:05:36.594Z,235
2018-05-10T13:06:36.374Z,225
2018-05-10T13:07:36.215Z,220
2018-05-10T13:08:36.551Z,220
2018-05-10T13:09:36.839Z,225
2018-05-10T13:10:36.850Z,240
2018-05-10T13:11:36.005Z,250
2018-05-10T13:12:36.002Z,260
2018-05-10T13:13:36.044Z,275
2018-05-10T13:14:36.336Z,290
2018-05-10T13:15:36.510Z,290
2018-05-10T13:16:35.989Z,290
2018-05-10T13:17:35.996Z,290
2018-05-10T13:18:36.517Z,290
2018-05-10T13:19:36.407Z,290
2018-05-10T13:20:35.992Z,285
2018-05-10T13:21:36.322Z,280
2018-05-10T13:22:35.984Z,280
2018-05-10T13:23:36.379Z,280
2018-05-10T13:24:36.506Z,280
2018-05-10T13:25:35.728Z,285
2018-05-10T13:26:36.250Z,285
2018-05-10T13:27:36.662Z,285
2018-05-10T13:28:36.720Z,285
2018-05-10T13:29:35.984Z,285
2018-05-10T13:30:36.235Z,280
2018-05-10T13:31:36.246Z,280
2018-05-10T13:32:36.525Z,275
2018-05-10T13:33:36.233Z,275
2018-05-10T13:34:36.238Z,270
2018-05-10T13:35:36.239Z,270
2018-05-10T13:36:36.493Z,270
2018-05-10T13:37:35.973Z,270
2018-05-10T13:38:36.222Z,265
2018-05-10T13:39:36.492Z,265
2018-05-10T13:40:36.234Z,255
2018-05-10T13:41:36.264Z,250
2018-05-10T13:42:36.225Z,245
2018-05-10T13:43:36.239Z,245
2018-05-10T13:44:36.224Z,240
2018-05-10T13:45:36.229Z,235
2018-05-10T13:46:36.234Z,230
2018-05-10T13:47:37.075Z,230
2018-05-10T13:48:36.497Z,225
2018-05-10T13:49:36.487Z,215
2018-05-10T13:50:36.483Z,210
2018-05-10T13:51:36.495Z,205
2018-05-10T13:52:36.221Z,200
2018-05-10T13:53:36.222Z,200
2018-05-10T13:54:36.501Z,200
2018-05-10T13:55:36.541Z,205
2018-05-10T13:56:36.225Z,210
2018-05-10T13:57:35.595Z,220
2018-05-10T13:58:35.961Z,235
2018-05-10T13:59:36.218Z,250
2018-05-10T14:00:36.355Z,270
2018-05-10T14:01:36.473Z,285
2018-05-10T14:02:36.657Z,305
2018-05-10T14:03:36.476Z,325
2018-05-10T14:04:36.757Z,345